Time;durP1;ratioP1;P1;durP2;ratioP2;P2;SDS_P1;SDS_P2;PMS_P1;PMS_P2;Temp;Humidity;BMP_temperature;BMP_pressure;BME280_temperature;BME280_humidity;BME280_pressure;Samples;Min_cycle;Max_cycle;Signal;HPM_P1;HPM_P2
2022/02/11 00:00:13;;;;;;;11.90;6.30;;;;;;;5.26;72.72;96800.20;107291;1274;129263;-83
2022/02/11 00:08:08;;;;;;;9.90;6.20;;;;;;;5.24;72.81;96801.17;106785;1274;190239;-82
2022/02/11 00:10:36;;;;;;;9.10;5.60;;;;;;;5.25;72.76;96805.55;107139;1274;134639;-82
2022/02/11 00:13:05;;;;;;;8.50;6.00;;;;;;;5.25;72.76;96811.74;107302;1274;93503;-82
2022/02/11 00:15:43;;;;;;;8.90;5.80;;;;;;;5.22;72.94;96803.97;107188;1274;136147;-82
2022/02/11 00:18:14;;;;;;;9.80;6.10;;;;;;;5.22;72.87;96805.23;107203;1274;132405;-82
2022/02/11 00:20:47;;;;;;;12.50;6.20;;;;;;;5.22;73.11;96811.70;107270;1274;152066;-82
2022/02/11 00:23:15;;;;;;;9.10;5.90;;;;;;;5.22;73.16;96815.33;107021;1274;144135;-83
2022/02/11 00:25:49;;;;;;;9.70;6.00;;;;;;;5.20;73.09;96813.39;107055;1274;116177;-82
2022/02/11 00:33:58;;;;;;;9.00;6.30;;;;;;;5.20;73.13;96812.82;105913;1274;1831835;-83
2022/02/11 00:36:33;;;;;;;10.70;6.30;;;;;;;5.20;72.99;96815.08;107309;1274;133735;-83
2022/02/11 01:04:06;;;;;;;8.20;5.20;;;;;;;5.17;73.40;96831.42;107135;1274;39218;-82
2022/02/11 01:06:35;;;;;;;8.40;6.00;;;;;;;5.19;73.36;96829.55;107777;1273;41630;-82
2022/02/11 01:09:04;;;;;;;9.20;5.60;;;;;;;5.20;73.31;96823.79;107615;1272;43626;-83
2022/02/11 01:11:40;;;;;;;10.20;6.30;;;;;;;5.22;73.47;96821.96;106354;1274;1771304;-82
2022/02/11 01:14:09;;;;;;;11.80;6.10;;;;;;;5.33;73.36;96822.79;105682;1274;2574170;-83
2022/02/11 01:16:42;;;;;;;9.50;5.10;;;;;;;5.36;73.30;96821.87;106493;1274;1488060;-83
2022/02/11 01:19:20;;;;;;;9.20;6.00;;;;;;;5.36;73.20;96820.86;107054;1274;141315;-83
2022/02/11 01:21:58;;;;;;;8.30;5.30;;;;;;;5.33;73.14;96823.11;106883;1274;180519;-83
2022/02/11 01:24:52;;;;;;;10.30;5.30;;;;;;;5.33;73.16;96821.00;107243;1274;167810;-83
2022/02/11 01:27:32;;;;;;;10.70;5.90;;;;;;;5.31;73.40;96815.88;107082;1273;155157;-82
2022/02/11 01:30:27;;;;;;;8.60;5.50;;;;;;;5.29;73.41;96817.01;107071;1274;150658;-81
2022/02/11 01:33:28;;;;;;;10.20;6.30;;;;;;;5.29;73.28;96814.90;107351;1274;122463;-83
2022/02/11 01:36:08;;;;;;;10.30;5.50;;;;;;;5.32;73.29;96814.10;107375;1274;103354;-83
2022/02/11 01:38:49;;;;;;;10.50;5.50;;;;;;;5.32;73.15;96815.05;107206;1274;107812;-83
2022/02/11 01:47:06;;;;;;;11.00;6.70;;;;;;;5.35;73.62;96817.33;107193;1274;129083;-83
2022/02/11 01:50:05;;;;;;;9.60;6.30;;;;;;;5.35;73.70;96817.65;107231;1273;103274;-83
2022/02/11 01:52:47;;;;;;;10.00;6.50;;;;;;;5.34;73.89;96818.55;106134;1272;1348573;-83
2022/02/11 01:55:34;;;;;;;9.80;6.90;;;;;;;5.32;74.09;96816.52;107037;1274;160890;-83
2022/02/11 02:01:06;;;;;;;11.40;6.60;;;;;;;5.30;74.29;96809.45;105741;1274;1866116;-83
2022/02/11 02:04:22;;;;;;;9.60;5.80;;;;;;;5.29;74.21;96808.80;106949;1274;181159;-83
2022/02/11 02:10:09;;;;;;;12.40;6.30;;;;;;;5.27;74.48;96805.67;105354;1274;2408013;-83
2022/02/11 02:16:01;;;;;;;11.90;7.30;;;;;;;5.23;74.61;96799.10;107088;1274;128183;-83
2022/02/11 02:24:13;;;;;;;11.20;6.90;;;;;;;5.15;75.38;96797.02;107085;1274;135058;-82
2022/02/11 02:27:15;;;;;;;12.90;7.90;;;;;;;5.09;75.48;96789.14;106128;1273;1407283;-83
2022/02/11 02:57:59;;;;;;;13.20;7.20;;;;;;;4.62;77.71;96766.75;106244;1274;1990732;-83
2022/02/11 03:51:13;;;;;;;10.60;6.90;;;;;;;4.65;78.67;96771.55;106626;1273;1196877;-83
2022/02/11 03:54:20;;;;;;;9.60;6.60;;;;;;;4.62;78.75;96771.60;107481;1274;161558;-82
2022/02/11 04:53:38;;;;;;;15.50;7.90;;;;;;;4.44;79.13;96766.14;107760;1274;62825;-82
2022/02/11 04:55:55;;;;;;;13.20;8.40;;;;;;;4.41;79.30;96765.30;103681;1274;2066231;-83
2022/02/11 05:01:13;;;;;;;14.50;8.90;;;;;;;4.32;79.18;96763.17;106442;1274;1751040;-82
2022/02/11 05:03:41;;;;;;;13.50;8.60;;;;;;;4.31;79.40;96768.92;107479;1274;200182;-82
2022/02/11 05:06:09;;;;;;;12.50;8.30;;;;;;;4.31;79.36;96774.66;106592;1274;1514987;-82
2022/02/11 05:08:37;;;;;;;15.20;9.30;;;;;;;4.32;79.32;96777.56;107411;1273;216118;-82
2022/02/11 05:11:09;;;;;;;15.60;9.10;;;;;;;4.33;79.39;96782.08;107466;1274;173177;-82
2022/02/11 05:13:38;;;;;;;15.60;8.50;;;;;;;4.34;79.40;96786.61;107736;1274;47039;-83
2022/02/11 05:16:06;;;;;;;14.30;9.20;;;;;;;4.35;79.42;96788.62;107739;1274;37025;-82
2022/02/11 05:18:34;;;;;;;15.80;9.10;;;;;;;4.32;79.11;96788.84;107473;1273;64706;-82
2022/02/11 05:21:03;;;;;;;13.40;8.00;;;;;;;4.29;79.23;96787.54;105918;1274;2138217;-82
2022/02/11 05:23:31;;;;;;;16.00;8.60;;;;;;;4.27;79.28;96786.34;106129;1273;1898097;-82
2022/02/11 05:25:59;;;;;;;14.70;8.00;;;;;;;4.25;79.38;96788.20;106527;1273;1417949;-83
2022/02/11 05:28:27;;;;;;;10.40;7.30;;;;;;;4.25;79.53;96784.20;107647;1274;222778;-83
2022/02/11 05:30:58;;;;;;;10.40;7.60;;;;;;;4.25;79.26;96786.25;105334;1273;1762791;-82
2022/02/11 05:33:28;;;;;;;13.00;7.70;;;;;;;4.26;79.41;96786.12;105777;1274;2101524;-83
2022/02/11 05:35:56;;;;;;;9.40;6.30;;;;;;;4.27;79.46;96785.96;107144;1274;183155;-83
2022/02/11 05:38:25;;;;;;;12.30;8.00;;;;;;;4.27;79.42;96782.66;106220;1273;1352538;-83
2022/02/11 05:40:53;;;;;;;14.40;7.70;;;;;;;4.26;79.46;96780.42;107016;1274;168144;-82
2022/02/11 05:43:22;;;;;;;11.00;7.20;;;;;;;4.23;79.45;96778.30;107134;1273;170508;-83
2022/02/11 05:45:50;;;;;;;12.00;8.10;;;;;;;4.22;79.63;96777.46;107043;1274;162706;-83
2022/02/11 05:48:18;;;;;;;13.30;8.50;;;;;;;4.21;79.55;96780.02;107120;1274;172594;-82
2022/02/11 05:50:46;;;;;;;14.10;7.60;;;;;;;4.21;79.59;96779.43;107185;1273;125469;-83
2022/02/11 05:53:15;;;;;;;12.50;7.60;;;;;;;4.22;79.62;96776.14;107107;1274;132811;-83
2022/02/11 05:55:43;;;;;;;11.50;8.00;;;;;;;4.19;79.61;96775.58;107156;1273;131308;-83
2022/02/11 05:58:12;;;;;;;15.00;8.00;;;;;;;4.19;79.68;96775.30;107077;1274;119717;-82
2022/02/11 06:00:40;;;;;;;12.30;8.10;;;;;;;4.20;79.72;96775.16;107069;1274;119650;-82
2022/02/11 06:03:08;;;;;;;13.30;8.10;;;;;;;4.22;79.61;96776.51;107111;1273;116037;-83
2022/02/11 06:05:37;;;;;;;11.30;7.80;;;;;;;4.22;79.66;96776.46;106911;1274;174358;-82
2022/02/11 06:08:05;;;;;;;13.50;8.10;;;;;;;4.24;79.64;96772.01;107048;1274;177424;-83
2022/02/11 06:10:34;;;;;;;11.90;7.60;;;;;;;4.25;79.44;96771.82;107173;1274;104267;-82
2022/02/11 06:13:02;;;;;;;10.10;7.10;;;;;;;4.26;79.30;96774.20;106936;1273;187106;-82
2022/02/11 06:15:30;;;;;;;12.30;7.70;;;;;;;4.28;79.29;96772.02;106932;1273;283218;-81
2022/02/11 06:17:59;;;;;;;11.80;7.60;;;;;;;4.28;79.38;96773.86;107306;1273;153604;-83
2022/02/11 06:20:28;;;;;;;15.20;8.30;;;;;;;4.31;79.14;96771.08;107140;1274;188538;-83
2022/02/11 06:22:57;;;;;;;11.20;8.00;;;;;;;4.34;79.17;96772.29;107215;1274;150174;-83
2022/02/11 06:25:26;;;;;;;13.10;7.80;;;;;;;4.37;79.09;96776.83;107228;1275;110729;-83
2022/02/11 06:27:54;;;;;;;11.40;6.90;;;;;;;4.40;78.97;96771.95;107118;1274;107425;-82
2022/02/11 06:30:23;;;;;;;11.40;7.80;;;;;;;4.41;79.13;96774.43;107149;1274;165521;-83
2022/02/11 06:32:52;;;;;;;10.60;8.30;;;;;;;4.43;78.78;96775.45;106809;1274;197177;-83
2022/02/11 06:35:20;;;;;;;13.20;8.40;;;;;;;4.43;78.76;96777.46;106983;1273;170611;-83
2022/02/11 06:37:50;;;;;;;11.90;8.20;;;;;;;4.43;78.79;96777.98;107064;1274;132637;-83
2022/02/11 06:40:19;;;;;;;12.20;7.60;;;;;;;4.43;78.69;96776.98;106974;1274;161735;-83
2022/02/11 06:42:47;;;;;;;14.70;8.20;;;;;;;4.43;78.70;96777.10;107014;1274;139508;-83
2022/02/11 06:45:16;;;;;;;13.10;7.60;;;;;;;4.45;78.70;96776.59;106928;1273;177975;-82
2022/02/11 06:47:44;;;;;;;11.10;6.80;;;;;;;4.47;78.54;96776.99;105865;1274;1645987;-83
2022/02/11 06:50:13;;;;;;;11.30;7.20;;;;;;;4.50;78.37;96780.42;106947;1273;206782;-83
2022/02/11 06:52:41;;;;;;;11.80;8.20;;;;;;;4.52;78.48;96777.69;106911;1274;155681;-83
2022/02/11 06:55:10;;;;;;;11.60;7.60;;;;;;;4.56;78.49;96772.96;107006;1274;211026;-83
2022/02/11 06:57:39;;;;;;;13.70;7.90;;;;;;;4.57;78.24;96771.35;106950;1273;218970;-83
2022/02/11 07:00:12;;;;;;;10.60;7.70;;;;;;;4.59;78.32;96772.85;107052;1273;103516;-83
2022/02/11 07:02:41;;;;;;;11.10;7.10;;;;;;;4.64;78.41;96774.79;104732;1274;1812894;-83
2022/02/11 07:05:10;;;;;;;12.00;7.90;;;;;;;4.68;78.12;96768.13;106887;1274;229936;-83
2022/02/11 07:07:39;;;;;;;15.00;7.80;;;;;;;4.70;77.98;96764.71;106850;1274;203369;-83
2022/02/11 07:10:09;;;;;;;11.00;6.90;;;;;;;4.75;78.15;96763.30;107006;1274;200462;-83
2022/02/11 07:12:37;;;;;;;13.00;6.90;;;;;;;4.75;78.08;96765.89;106799;1274;180797;-83
2022/02/11 07:15:08;;;;;;;9.30;6.40;;;;;;;4.77;78.21;96767.75;106903;1274;157657;-83
2022/02/11 07:17:36;;;;;;;9.40;6.50;;;;;;;4.79;78.28;96772.89;106912;1274;201503;-83
2022/02/11 07:20:07;;;;;;;10.40;6.50;;;;;;;4.77;78.30;96774.16;106080;1274;1557830;-83
2022/02/11 07:22:36;;;;;;;11.70;7.10;;;;;;;4.79;78.01;96772.41;105723;1273;1823759;-83
2022/02/11 07:25:06;;;;;;;11.40;6.70;;;;;;;4.80;77.91;96772.65;106744;1274;360422;-83
2022/02/11 07:27:34;;;;;;;;;;;;;;;4.86;77.92;96772.11;107163;1273;146778;-83
2022/02/11 07:30:03;;;;;;;8.80;5.90;;;;;;;4.91;77.87;96773.29;107193;1274;103488;-82
2022/02/11 07:32:32;;;;;;;10.10;6.50;;;;;;;4.93;78.06;96771.66;106939;1274;171848;-82
2022/02/11 07:35:02;;;;;;;10.80;6.70;;;;;;;4.94;77.81;96772.67;107102;1274;135558;-81
2022/02/11 07:37:32;;;;;;;13.70;7.70;;;;;;;4.92;77.80;96774.89;106791;1274;169633;-82
2022/02/11 07:40:00;;;;;;;12.90;7.20;;;;;;;4.92;77.77;96773.63;107096;1274;181400;-83
2022/02/11 07:42:29;;;;;;;13.20;7.80;;;;;;;4.91;77.66;96767.11;107309;1274;147872;-83
2022/02/11 07:44:58;;;;;;;12.20;8.10;;;;;;;4.90;77.70;96771.33;107359;1274;121536;-82
2022/02/11 07:47:27;;;;;;;11.00;7.30;;;;;;;4.86;77.99;96764.02;105954;1273;1704647;-83
2022/02/11 07:49:56;;;;;;;15.70;8.40;;;;;;;4.88;77.87;96764.89;106997;1273;198886;-83
2022/02/11 07:52:24;;;;;;;13.60;8.90;;;;;;;4.87;77.65;96766.88;107097;1273;135741;-83
2022/02/11 07:54:53;;;;;;;12.00;8.40;;;;;;;4.83;77.57;96763.87;106872;1274;172320;-83
2022/02/11 07:57:21;;;;;;;12.60;8.00;;;;;;;4.82;77.59;96766.80;106741;1274;185162;-83
2022/02/11 07:59:50;;;;;;;12.80;8.60;;;;;;;4.83;77.50;96759.98;106962;1274;145490;-83
2022/02/11 08:02:18;;;;;;;14.40;8.80;;;;;;;4.85;77.34;96760.06;106981;1274;143067;-82
2022/02/11 08:04:47;;;;;;;10.70;7.50;;;;;;;4.86;77.20;96755.15;107104;1274;124187;-83
2022/02/11 08:07:16;;;;;;;14.80;8.10;;;;;;;4.88;77.07;96752.23;107069;1274;114469;-83
2022/02/11 08:09:44;;;;;;;12.20;7.40;;;;;;;4.90;77.20;96747.96;105831;1273;1751731;-83
2022/02/11 08:12:14;;;;;;;12.90;7.60;;;;;;;4.91;76.96;96747.13;107185;1274;106480;-83
2022/02/11 08:14:44;;;;;;;13.50;8.40;;;;;;;4.91;76.79;96748.75;106803;1273;251575;-83
2022/02/11 08:17:13;;;;;;;13.10;8.10;;;;;;;4.91;76.99;96747.90;107056;1274;140643;-83
2022/02/11 08:19:42;;;;;;;13.10;7.90;;;;;;;4.91;76.97;96746.29;106931;1274;162642;-83
2022/02/11 08:22:10;;;;;;;12.90;8.30;;;;;;;4.92;76.97;96742.06;107161;1274;103795;-83
2022/02/11 08:24:39;;;;;;;15.00;8.80;;;;;;;4.95;76.73;96745.64;107118;1274;110534;-83
2022/02/11 08:27:07;;;;;;;13.20;8.00;;;;;;;4.99;76.59;96744.59;107174;1273;101258;-83
2022/02/11 08:29:37;;;;;;;15.90;8.60;;;;;;;5.03;76.36;96748.27;107097;1274;107650;-83
2022/02/11 08:32:08;;;;;;;13.70;8.00;;;;;;;5.08;76.31;96749.45;106960;1274;180937;-84
2022/02/11 08:34:37;;;;;;;11.30;8.00;;;;;;;5.11;76.27;96754.44;107240;1273;120087;-83
2022/02/11 08:37:06;;;;;;;12.80;8.70;;;;;;;5.12;76.30;96752.61;106999;1274;131900;-83
2022/02/11 08:39:38;;;;;;;13.40;8.80;;;;;;;5.14;76.09;96752.05;107223;1274;98018;-83
2022/02/11 08:42:09;;;;;;;12.30;8.00;;;;;;;5.14;75.89;96740.50;106981;1274;167020;-83
2022/02/11 08:44:37;;;;;;;13.40;8.20;;;;;;;5.13;76.03;96739.97;107072;1274;115421;-83
2022/02/11 08:47:08;;;;;;;15.50;9.00;;;;;;;5.13;75.82;96739.91;107019;1274;165785;-82
2022/02/11 08:49:38;;;;;;;16.00;9.30;;;;;;;5.12;75.83;96737.48;107007;1274;139174;-83
2022/02/11 08:52:07;;;;;;;14.30;9.10;;;;;;;5.13;75.71;96732.34;107073;1273;138174;-83
2022/02/11 08:54:35;;;;;;;12.20;8.10;;;;;;;5.14;75.65;96729.58;106750;1273;177075;-83
2022/02/11 08:57:05;;;;;;;14.30;8.60;;;;;;;5.15;75.87;96730.38;106786;1275;194414;-83
2022/02/11 08:59:33;;;;;;;12.30;9.00;;;;;;;5.14;75.80;96735.63;106964;1273;144166;-82
2022/02/11 09:02:08;;;;;;;11.80;7.80;;;;;;;5.13;75.73;96735.59;105438;1273;2249009;-82
2022/02/11 09:04:37;;;;;;;13.10;7.80;;;;;;;5.13;75.93;96732.19;106113;1274;1284066;-83
2022/02/11 09:07:06;;;;;;;13.00;8.60;;;;;;;5.17;75.78;96727.88;107128;1274;116805;-83
2022/02/11 09:09:35;;;;;;;14.50;9.00;;;;;;;5.22;75.65;96722.39;105563;1274;2120950;-82
2022/02/11 09:12:04;;;;;;;13.00;8.70;;;;;;;5.29;75.89;96716.45;107190;1273;134943;-82
2022/02/11 09:14:33;;;;;;;13.60;9.10;;;;;;;5.42;75.62;96716.77;107269;1273;149151;-82
2022/02/11 09:17:01;;;;;;;15.50;9.40;;;;;;;5.56;75.79;96719.80;107122;1273;126757;-82
2022/02/11 09:19:30;;;;;;;12.60;8.80;;;;;;;5.70;75.68;96722.04;105642;1274;2449849;-83
2022/02/11 09:21:59;;;;;;;12.60;7.10;;;;;;;5.79;75.42;96721.11;107250;1275;184457;-83
2022/02/11 09:24:28;;;;;;;13.90;8.00;;;;;;;5.84;74.97;96718.48;107217;1273;189056;-83
2022/02/11 09:26:56;;;;;;;14.20;7.80;;;;;;;5.87;74.85;96723.61;107204;1275;106624;-83
2022/02/11 09:29:25;;;;;;;12.50;7.60;;;;;;;5.86;74.26;96716.29;107037;1274;137124;-83
2022/02/11 09:32:23;;;;;;;13.10;8.20;;;;;;;5.87;74.52;96714.29;107201;1274;96881;-83
2022/02/11 09:34:52;;;;;;;14.80;7.90;;;;;;;5.90;74.04;96708.55;106925;1273;197888;-83
2022/02/11 09:37:20;;;;;;;12.10;7.00;;;;;;;5.98;73.90;96717.24;106036;1273;1330816;-83
2022/02/11 09:39:49;;;;;;;10.20;7.20;;;;;;;6.05;73.40;96721.54;106922;1273;165996;-83
2022/02/11 09:42:20;;;;;;;10.90;6.50;;;;;;;6.09;73.16;96720.32;107015;1274;125565;-83
2022/02/11 09:44:49;;;;;;;11.60;6.30;;;;;;;6.09;72.69;96713.23;107039;1274;145135;-84
2022/02/11 09:47:20;;;;;;;11.40;6.80;;;;;;;6.10;72.26;96718.49;107128;1275;115435;-84
2022/02/11 09:49:48;;;;;;;12.50;6.80;;;;;;;6.12;72.51;96717.35;107067;1274;112263;-83
2022/02/11 09:52:18;;;;;;;12.60;7.60;;;;;;;6.09;72.45;96713.85;107010;1274;172780;-83
2022/02/11 09:54:47;;;;;;;13.20;7.70;;;;;;;6.07;72.49;96719.15;107235;1274;131612;-83
2022/02/11 09:57:19;;;;;;;9.80;6.00;;;;;;;6.05;72.88;96716.89;107047;1274;116749;-83
2022/02/11 09:59:48;;;;;;;11.00;6.40;;;;;;;6.04;72.42;96717.30;105556;1273;1968984;-83
2022/02/11 10:02:17;;;;;;;12.60;6.80;;;;;;;6.07;72.24;96716.61;107000;1274;133721;-83
2022/02/11 10:04:56;;;;;;;10.70;6.30;;;;;;;6.08;72.23;96717.42;107032;1274;146532;-83
2022/02/11 10:07:25;;;;;;;10.80;6.00;;;;;;;6.07;72.15;96715.63;107158;1273;143175;-83
2022/02/11 10:09:55;;;;;;;7.80;5.70;;;;;;;6.07;72.09;96710.46;106937;1273;173490;-83
2022/02/11 10:12:25;;;;;;;9.90;6.10;;;;;;;6.04;71.59;96708.41;106957;1274;168302;-83
2022/02/11 10:14:53;;;;;;;8.80;5.70;;;;;;;6.03;71.20;96709.13;107077;1274;135948;-83
2022/02/11 10:17:22;;;;;;;12.80;7.40;;;;;;;6.02;71.16;96702.91;107053;1273;136686;-83
2022/02/11 10:19:54;;;;;;;13.30;7.50;;;;;;;6.01;70.87;96702.16;107075;1274;123642;-83
2022/02/11 10:22:25;;;;;;;12.60;7.60;;;;;;;5.97;71.19;96691.30;107137;1273;133979;-83
2022/02/11 10:24:57;;;;;;;15.10;7.70;;;;;;;5.95;71.19;96696.27;106904;1275;151330;-83
2022/02/11 10:27:27;;;;;;;13.40;7.80;;;;;;;5.94;71.11;96698.79;107202;1274;133047;-83
2022/02/11 10:29:58;;;;;;;12.20;7.10;;;;;;;5.93;71.28;96700.20;107288;1273;113085;-83
2022/02/11 10:32:44;;;;;;;11.50;7.10;;;;;;;5.93;70.97;96702.52;107381;1274;130926;-83
2022/02/11 10:35:15;;;;;;;14.60;7.60;;;;;;;5.91;71.08;96697.36;107061;1274;148707;-83
2022/02/11 10:38:00;;;;;;;;;;;;;;;5.88;70.92;96689.20;107019;1274;161260;-83
2022/02/11 10:40:34;;;;;;;13.10;7.30;;;;;;;5.84;71.08;96682.54;106385;1275;1809716;-83
2022/02/11 10:43:03;;;;;;;13.40;7.70;;;;;;;5.84;71.03;96676.69;106161;1274;1840334;-82
2022/02/11 10:45:37;;;;;;;14.10;7.00;;;;;;;5.88;70.82;96671.20;107165;1274;178011;-81
2022/02/11 10:48:13;;;;;;;12.10;6.70;;;;;;;5.91;70.84;96668.17;107101;1273;123009;-83
2022/02/11 10:50:51;;;;;;;9.10;6.70;;;;;;;5.97;71.05;96660.09;107062;1274;132944;-83
2022/02/11 10:53:25;;;;;;;9.60;5.50;;;;;;;6.03;70.76;96660.02;107019;1274;133265;-83
2022/02/11 10:55:54;;;;;;;7.70;4.80;;;;;;;6.07;70.59;96662.92;107023;1273;197542;-83
2022/02/11 10:58:24;;;;;;;8.10;4.80;;;;;;;6.10;69.62;96659.85;107212;1274;93454;-83
2022/02/11 11:00:52;;;;;;;7.90;3.70;;;;;;;6.16;68.80;96647.89;106980;1274;155719;-83
2022/02/11 11:03:21;;;;;;;7.60;4.60;;;;;;;6.20;68.74;96651.86;107165;1273;114219;-83
2022/02/11 11:05:51;;;;;;;7.60;4.30;;;;;;;6.22;68.27;96649.86;107054;1273;142952;-83
2022/02/11 11:08:20;;;;;;;7.80;4.40;;;;;;;6.24;68.03;96650.67;106793;1274;170036;-84
2022/02/11 11:10:50;;;;;;;8.10;5.20;;;;;;;6.25;68.01;96652.84;104701;1274;2035230;-84
2022/02/11 11:13:19;;;;;;;7.20;3.90;;;;;;;6.25;67.66;96649.52;105920;1274;1445942;-84
2022/02/11 11:15:51;;;;;;;7.30;4.10;;;;;;;6.20;66.83;96649.48;106962;1274;213885;-83
2022/02/11 11:18:20;;;;;;;5.50;3.50;;;;;;;6.20;67.01;96654.11;107048;1274;214151;-83
2022/02/11 11:20:50;;;;;;;5.90;3.60;;;;;;;6.22;66.80;96647.34;106964;1273;212661;-84
2022/02/11 11:23:24;;;;;;;7.20;3.80;;;;;;;6.27;66.67;96659.23;106944;1274;142365;-84
2022/02/11 11:25:59;;;;;;;4.70;3.10;;;;;;;6.31;66.08;96659.10;106842;1274;155640;-83
2022/02/11 11:28:46;;;;;;;5.90;3.30;;;;;;;6.31;65.84;96646.09;107128;1275;155616;-84
2022/02/11 11:31:18;;;;;;;6.10;3.60;;;;;;;6.30;65.53;96655.19;105908;1273;1844867;-83
2022/02/11 11:33:46;;;;;;;4.30;2.70;;;;;;;6.27;65.67;96654.91;104724;1274;1761675;-83
2022/02/11 11:36:18;;;;;;;4.30;2.90;;;;;;;6.23;64.15;96653.34;106043;1274;1223058;-84
2022/02/11 11:38:55;;;;;;;5.00;2.90;;;;;;;6.26;64.05;96657.16;105360;1274;1992375;-83
2022/02/11 11:41:25;;;;;;;5.30;2.90;;;;;;;6.26;64.60;96659.22;105722;1275;1805857;-84
2022/02/11 11:43:57;;;;;;;4.30;2.70;;;;;;;6.27;64.56;96660.64;105001;1274;2582714;-83
2022/02/11 11:46:34;;;;;;;5.10;3.50;;;;;;;6.32;64.43;96658.84;106900;1274;244432;-83
2022/02/11 11:49:11;;;;;;;5.60;3.30;;;;;;;6.45;64.23;96666.80;106111;1274;1845925;-82
2022/02/11 11:52:08;;;;;;;6.20;3.20;;;;;;;6.60;64.27;96656.95;105829;1275;1783351;-83
2022/02/11 11:54:37;;;;;;;4.60;2.60;;;;;;;6.68;63.70;96652.04;104575;1274;2014835;-83
2022/02/11 11:57:07;;;;;;;4.90;3.00;;;;;;;6.67;62.41;96646.98;105520;1274;2055623;-83
2022/02/11 11:59:41;;;;;;;4.60;2.70;;;;;;;6.68;62.79;96641.50;107000;1274;219709;-83
2022/02/11 12:02:14;;;;;;;4.70;2.70;;;;;;;6.70;62.75;96633.56;107023;1274;137067;-83
2022/02/11 12:04:51;;;;;;;4.80;2.90;;;;;;;6.70;62.88;96624.45;106938;1274;194845;-83
2022/02/11 12:07:21;;;;;;;6.70;3.80;;;;;;;6.73;62.80;96630.98;105626;1274;1929619;-84
2022/02/11 12:09:52;;;;;;;7.10;3.50;;;;;;;6.77;62.97;96634.41;106072;1275;1261950;-83
2022/02/11 12:12:24;;;;;;;7.70;3.40;;;;;;;6.84;63.38;96628.65;106861;1273;209820;-83
2022/02/11 12:14:52;;;;;;;;;;;;;;;6.92;63.24;96626.77;105489;1273;2129283;-83
2022/02/11 12:17:22;;;;;;;5.50;3.10;;;;;;;6.92;62.89;96629.83;104345;1274;2136542;-84
2022/02/11 12:19:51;;;;;;;3.90;2.30;;;;;;;6.87;62.31;96623.39;107086;1274;137205;-84
2022/02/11 12:22:21;;;;;;;5.60;3.60;;;;;;;6.80;62.07;96624.57;107138;1274;154952;-83
2022/02/11 12:27:40;;;;;;;8.00;2.80;;;;;;;6.64;62.09;96629.63;104774;1274;1831384;-83
2022/02/11 12:30:15;;;;;;;6.20;3.30;;;;;;;6.56;62.20;96639.40;105972;1274;1805662;-83
2022/02/11 12:32:45;;;;;;;6.00;2.70;;;;;;;6.52;63.28;96642.39;105436;1274;2074780;-83
2022/02/11 12:35:19;;;;;;;7.40;3.70;;;;;;;6.48;63.32;96643.98;107001;1274;138039;-83
2022/02/11 12:37:48;;;;;;;5.80;2.80;;;;;;;6.43;63.24;96647.30;104186;1274;2121358;-83
2022/02/11 12:40:21;;;;;;;5.30;2.80;;;;;;;6.37;63.32;96647.52;106906;1274;145794;-84
2022/02/11 12:42:52;;;;;;;6.10;2.40;;;;;;;6.31;63.19;96652.46;106032;1275;1507167;-83
2022/02/11 12:45:24;;;;;;;5.80;3.00;;;;;;;6.26;63.81;96657.58;107196;1274;130777;-83
2022/02/11 12:47:56;;;;;;;7.00;3.40;;;;;;;6.26;63.51;96654.69;107348;1273;127852;-84
2022/02/11 12:50:31;;;;;;;5.30;2.70;;;;;;;6.31;63.19;96650.98;106022;1273;1535470;-83
2022/02/11 12:53:02;;;;;;;4.20;2.80;;;;;;;6.36;63.06;96654.41;107312;1273;143849;-83
2022/02/11 12:55:35;;;;;;;5.50;3.00;;;;;;;6.39;62.97;96654.34;107421;1275;112843;-83
2022/02/11 12:58:07;;;;;;;4.30;2.50;;;;;;;6.42;62.49;96654.88;105942;1274;1710334;-83
2022/02/11 13:00:36;;;;;;;5.50;3.30;;;;;;;6.43;62.43;96657.95;106920;1274;189142;-83
2022/02/11 13:03:07;;;;;;;4.30;2.60;;;;;;;6.43;62.63;96655.11;106830;1274;195625;-83
2022/02/11 13:05:39;;;;;;;5.10;2.70;;;;;;;6.44;62.74;96664.22;106921;1275;148227;-84
2022/02/11 13:08:08;;;;;;;3.10;1.50;;;;;;;6.49;62.41;96658.95;105806;1274;1708671;-83
2022/02/11 13:10:39;;;;;;;4.50;2.20;;;;;;;6.50;62.10;96661.60;105446;1274;2300754;-83
2022/02/11 13:13:13;;;;;;;;;;;;;;;6.50;61.67;96665.61;106757;1274;271731;-83
2022/02/11 13:15:45;;;;;;;5.60;2.50;;;;;;;6.48;61.76;96674.48;105481;1274;2141719;-83
2022/02/11 13:18:16;;;;;;;4.60;1.70;;;;;;;6.45;62.19;96680.40;107183;1273;126120;-84
2022/02/11 13:20:47;;;;;;;2.40;1.50;;;;;;;6.41;62.23;96671.84;107166;1273;155400;-83
2022/02/11 13:23:20;;;;;;;4.00;2.20;;;;;;;6.39;62.21;96677.73;106901;1274;148118;-83
2022/02/11 13:25:50;;;;;;;2.70;2.00;;;;;;;6.37;62.88;96670.13;106853;1274;242575;-83
2022/02/11 13:28:20;;;;;;;5.70;2.40;;;;;;;6.33;63.22;96676.66;105794;1274;1811953;-83
2022/02/11 13:30:56;;;;;;;3.70;2.50;;;;;;;6.30;63.69;96681.20;107026;1274;141827;-83
2022/02/11 13:33:26;;;;;;;5.90;2.40;;;;;;;6.29;63.66;96675.61;107020;1274;200362;-83
2022/02/11 13:35:57;;;;;;;3.80;2.10;;;;;;;6.29;64.01;96695.46;106792;1274;193056;-83
2022/02/11 13:38:27;;;;;;;4.80;2.50;;;;;;;6.26;64.58;96697.86;107099;1274;150811;-83
2022/02/11 13:40:57;;;;;;;3.00;2.10;;;;;;;6.21;64.66;96696.87;106160;1274;1499066;-83
2022/02/11 13:43:29;;;;;;;4.60;2.40;;;;;;;6.18;65.26;96698.40;107145;1274;115828;-84
2022/02/11 13:46:02;;;;;;;3.20;2.20;;;;;;;6.14;65.54;96693.52;107376;1274;125812;-83
2022/02/11 13:48:31;;;;;;;3.70;2.10;;;;;;;6.06;66.20;96694.18;107289;1274;119149;-83
2022/02/11 13:51:03;;;;;;;2.30;1.70;;;;;;;6.00;66.63;96691.69;104600;1274;3527453;-83
2022/02/11 13:53:34;;;;;;;2.60;1.50;;;;;;;5.93;67.19;96694.73;107168;1274;157149;-81
2022/02/11 13:56:04;;;;;;;3.20;2.60;;;;;;;5.87;67.69;96705.05;105244;1273;2114160;-82
2022/02/11 13:58:34;;;;;;;4.80;3.20;;;;;;;5.85;68.11;96714.11;106870;1274;192469;-82
2022/02/11 14:01:04;;;;;;;5.20;3.00;;;;;;;5.79;68.53;96716.16;106899;1274;159142;-82
2022/02/11 14:03:33;;;;;;;6.00;2.90;;;;;;;5.75;68.80;96718.10;107037;1274;183949;-83
2022/02/11 14:06:04;;;;;;;6.10;2.60;;;;;;;5.67;69.40;96727.31;107264;1274;118300;-84
2022/02/11 14:08:43;;;;;;;7.60;3.00;;;;;;;5.60;69.79;96729.84;105693;1274;1757582;-83
2022/02/11 14:11:14;;;;;;;3.00;2.00;;;;;;;5.52;70.54;96733.58;107035;1274;214921;-83
2022/02/11 14:13:43;;;;;;;4.50;2.30;;;;;;;5.42;71.28;96745.27;106225;1274;1175381;-83
2022/02/11 14:16:12;;;;;;;5.10;3.00;;;;;;;5.33;72.13;96740.01;106867;1274;171798;-83
2022/02/11 14:18:42;;;;;;;4.30;2.50;;;;;;;5.25;72.80;96748.71;106939;1274;128965;-83
2022/02/11 14:21:13;;;;;;;3.80;2.30;;;;;;;5.17;73.61;96751.69;106917;1274;152119;-83
2022/02/11 14:23:41;;;;;;;6.60;3.50;;;;;;;5.10;74.24;96756.95;106891;1274;161546;-83
2022/02/11 14:26:10;;;;;;;6.30;2.80;;;;;;;5.04;74.91;96762.15;105549;1274;2151897;-83
2022/02/11 14:28:38;;;;;;;10.10;2.90;;;;;;;4.96;75.51;96777.38;105382;1274;2145780;-83
2022/02/11 14:31:08;;;;;;;5.90;3.00;;;;;;;4.90;76.44;96783.63;106932;1274;160361;-82
2022/02/11 14:33:36;;;;;;;6.20;3.00;;;;;;;4.78;77.47;96828.06;107037;1274;119629;-83
2022/02/11 14:36:06;;;;;;;2.90;2.00;;;;;;;4.53;78.16;96825.48;107227;1274;100280;-83
2022/02/11 14:38:34;;;;;;;4.10;2.30;;;;;;;4.25;79.10;96830.70;107176;1274;121826;-82
2022/02/11 14:43:49;;;;;;;4.60;2.50;;;;;;;3.90;81.25;96828.66;107161;1275;130459;-83
2022/02/11 14:46:18;;;;;;;5.40;2.90;;;;;;;3.79;82.14;96840.02;107025;1274;132439;-83
2022/02/11 14:48:46;;;;;;;4.90;2.60;;;;;;;3.72;82.81;96851.77;106965;1274;196598;-82
2022/02/11 14:51:15;;;;;;;5.90;3.20;;;;;;;3.67;83.45;96857.52;107072;1274;127047;-82
2022/02/11 14:53:43;;;;;;;4.90;2.70;;;;;;;3.61;84.01;96848.20;107047;1274;132369;-82
2022/02/11 14:56:12;;;;;;;3.00;2.50;;;;;;;3.55;84.51;96871.17;107331;1274;116940;-83
2022/02/11 14:58:43;;;;;;;4.00;2.60;;;;;;;3.48;84.93;96882.41;107577;1274;134012;-82